Time;durP1;ratioP1;P1;durP2;ratioP2;P2;SDS_P1;SDS_P2;PMS_P1;PMS_P2;Temp;Humidity;BMP_temperature;BMP_pressure;BME280_temperature;BME280_humidity;BME280_pressure;Samples;Min_cycle;Max_cycle;Signal;HPM_P1;HPM_P2
2022/10/04 00:00:35;;;;;;;8.48;3.88;;;;;;;8.77;100.00;102171.69;2079787;28;38882;-72
2022/10/04 00:01:57;;;;;;;6.82;3.70;;;;;;;8.74;100.00;102164.56;2079891;28;32585;-71
2022/10/04 00:03:16;;;;;;;7.30;5.00;;;;;;;8.72;100.00;102163.66;2080688;28;20092;-70
2022/10/04 00:04:26;;;;;;;9.88;4.78;;;;;;;8.72;100.00;102163.66;2076098;28;20046;-71
2022/10/04 00:05:30;;;;;;;8.82;4.65;;;;;;;8.71;100.00;102167.22;2074147;28;32730;-71
2022/10/04 00:06:32;;;;;;;9.77;4.97;;;;;;;8.71;100.00;102163.66;2080228;28;32076;-73
2022/10/04 00:07:46;;;;;;;7.15;5.07;;;;;;;8.70;100.00;102173.41;2080820;28;31177;-71
2022/10/04 00:08:56;;;;;;;8.60;5.45;;;;;;;8.71;100.00;102166.31;2080088;28;31682;-72
2022/10/04 00:10:20;;;;;;;9.98;4.75;;;;;;;8.70;100.00;102168.06;2080871;28;20084;-71
2022/10/04 00:11:29;;;;;;;8.63;4.32;;;;;;;8.71;100.00;102163.66;2079680;28;34301;-72
2022/10/04 00:12:39;;;;;;;12.57;6.25;;;;;;;8.72;100.00;102162.75;2081065;28;20042;-72
2022/10/04 00:13:47;;;;;;;7.43;4.40;;;;;;;8.71;100.00;102164.53;2080313;28;37731;-72
2022/10/04 00:14:54;;;;;;;8.40;4.35;;;;;;;8.73;100.00;102160.09;2079899;28;37254;-72
2022/10/04 00:15:56;;;;;;;8.25;4.55;;;;;;;8.73;100.00;102156.53;2079993;28;39324;-73
2022/10/04 00:16:59;;;;;;;13.20;5.95;;;;;;;8.75;100.00;102165.44;2079971;28;36636;-72
2022/10/04 00:18:11;;;;;;;10.40;5.28;;;;;;;8.75;100.00;102162.78;2079804;28;29098;-73
2022/10/04 00:19:18;;;;;;;10.25;6.85;;;;;;;8.82;100.00;102164.59;2080026;28;31308;-72
2022/10/04 00:20:49;;;;;;;10.35;6.60;;;;;;;8.82;100.00;102158.34;2080829;28;20816;-71
2022/10/04 00:22:00;;;;;;;13.18;6.68;;;;;;;8.84;100.00;102152.13;2104222;22;35697;-73
2022/10/04 00:23:30;;;;;;;13.63;6.53;;;;;;;8.87;100.00;102151.25;2081992;28;31457;-72
2022/10/04 00:24:34;;;;;;;12.43;5.43;;;;;;;8.93;100.00;102157.50;2076804;28;20050;-72
2022/10/04 00:25:36;;;;;;;12.52;6.88;;;;;;;8.95;100.00;102149.50;2072014;28;36166;-72
2022/10/04 00:26:37;;;;;;;12.57;6.47;;;;;;;8.94;100.00;102153.06;2072500;28;31794;-72
2022/10/04 00:28:26;;;;;;;11.82;5.20;;;;;;;8.95;100.00;102152.16;2080191;28;20108;-73
2022/10/04 00:29:34;;;;;;;8.93;5.47;;;;;;;8.94;100.00;102151.28;2074052;28;33008;-72
2022/10/04 00:30:39;;;;;;;11.98;6.80;;;;;;;8.96;100.00;102151.28;2072389;28;33395;-73
2022/10/04 00:32:06;;;;;;;10.82;6.18;;;;;;;8.95;100.00;102152.16;2071946;28;39683;-73
2022/10/04 00:33:09;;;;;;;10.63;5.90;;;;;;;8.96;100.00;102156.63;2070524;28;20081;-74
2022/10/04 00:34:10;;;;;;;14.25;6.95;;;;;;;8.96;100.00;102152.16;2072566;28;26192;-73
2022/10/04 00:35:27;;;;;;;13.35;6.38;;;;;;;8.97;100.00;102148.63;2072584;28;30247;-73
2022/10/04 00:36:36;;;;;;;11.38;5.75;;;;;;;8.98;100.00;102152.19;2071631;28;32857;-73
2022/10/04 00:38:05;;;;;;;10.55;6.70;;;;;;;9.00;100.00;102146.84;2072422;28;36307;-72
2022/10/04 00:39:06;;;;;;;11.13;7.20;;;;;;;9.02;100.00;102153.97;2072209;28;37187;-73
2022/10/04 00:40:18;;;;;;;11.15;7.15;;;;;;;9.05;100.00;102161.13;2071752;28;41113;-72
2022/10/04 00:41:20;;;;;;;12.38;6.63;;;;;;;9.04;100.00;102151.31;2071494;28;32229;-74
2022/10/04 00:42:40;;;;;;;12.75;7.38;;;;;;;9.06;100.00;102152.19;2073164;28;20830;-73
2022/10/04 00:43:47;;;;;;;12.80;6.95;;;;;;;9.06;100.00;102146.84;2071635;28;41177;-73
2022/10/04 00:45:07;;;;;;;12.18;6.82;;;;;;;9.08;100.00;102154.00;2071683;28;38782;-73
2022/10/04 00:46:17;;;;;;;13.27;6.43;;;;;;;9.08;100.00;102145.97;2072168;28;42292;-74
2022/10/04 00:48:15;;;;;;;12.90;6.45;;;;;;;9.09;100.00;102147.75;2071825;28;23643;-73
2022/10/04 00:49:23;;;;;;;8.18;5.53;;;;;;;9.08;100.00;102143.31;2070602;28;29793;-72
2022/10/04 00:50:52;;;;;;;16.60;7.10;;;;;;;9.10;100.00;102144.22;2067813;28;35660;-73
2022/10/04 00:52:19;;;;;;;9.95;6.43;;;;;;;9.11;100.00;102137.06;2076196;28;38448;-73
2022/10/04 00:53:33;;;;;;;10.43;5.78;;;;;;;9.12;100.00;102137.06;2078182;28;33842;-73
2022/10/04 00:54:49;;;;;;;11.82;7.25;;;;;;;9.13;100.00;102137.97;2072269;28;35026;-72
2022/10/04 00:55:58;;;;;;;7.95;5.50;;;;;;;9.13;100.00;102130.88;2072032;28;20042;-73
2022/10/04 00:57:09;;;;;;;11.60;5.72;;;;;;;9.12;100.00;102134.41;2071930;28;38032;-73
2022/10/04 00:58:23;;;;;;;9.93;6.47;;;;;;;9.12;100.00;102137.06;2071335;28;32332;-74
2022/10/04 01:00:20;;;;;;;10.45;6.00;;;;;;;9.12;100.00;102131.75;2071543;28;40342;-74
2022/10/04 01:01:27;;;;;;;12.50;6.80;;;;;;;9.13;100.00;102133.53;2063471;28;31469;-74
2022/10/04 01:02:52;;;;;;;11.40;6.28;;;;;;;9.12;100.00;102137.06;2062112;28;33378;-74
2022/10/04 01:03:57;;;;;;;12.23;7.20;;;;;;;9.16;100.00;102137.97;2053993;28;33491;-74
2022/10/04 01:05:01;;;;;;;11.88;7.45;;;;;;;9.15;100.00;102131.75;2055611;28;32277;-74
2022/10/04 01:06:09;;;;;;;9.95;5.70;;;;;;;9.15;100.00;102138.84;2061802;28;33351;-74
2022/10/04 01:07:16;;;;;;;11.95;6.43;;;;;;;9.15;100.00;102138.84;2070701;28;38141;-74
2022/10/04 01:08:29;;;;;;;12.60;6.18;;;;;;;9.13;100.00;102133.53;2079641;28;35882;-74
2022/10/04 01:09:38;;;;;;;10.80;6.82;;;;;;;9.14;100.00;102135.28;2081458;28;41704;-74
2022/10/04 01:10:46;;;;;;;12.90;7.30;;;;;;;9.15;100.00;102125.50;2086241;28;30553;-74
2022/10/04 01:12:07;;;;;;;11.20;6.97;;;;;;;9.15;100.00;102130.84;2080889;28;20045;-74
2022/10/04 01:13:29;;;;;;;10.20;6.75;;;;;;;9.17;100.00;102118.41;2080881;28;20262;-74
2022/10/04 01:15:00;;;;;;;14.45;6.60;;;;;;;9.15;100.00;102118.41;2080180;28;35443;-74
2022/10/04 01:16:28;;;;;;;10.57;5.28;;;;;;;9.13;100.00;102121.94;2080313;28;20137;-74
2022/10/04 01:17:30;;;;;;;10.10;6.55;;;;;;;9.12;100.00;102126.38;2079986;28;37310;-74
2022/10/04 01:18:34;;;;;;;15.65;7.45;;;;;;;9.13;100.00;102120.19;2080725;28;20041;-74
2022/10/04 01:19:37;;;;;;;11.55;7.25;;;;;;;9.12;100.00;102121.06;2080178;28;40612;-74
2022/10/04 01:21:07;;;;;;;11.63;7.20;;;;;;;9.14;100.00;102113.91;2079774;28;37328;-74
2022/10/04 01:22:17;;;;;;;10.70;7.38;;;;;;;9.12;100.00;102113.03;2078959;28;32579;-74
2022/10/04 01:23:45;;;;;;;12.50;6.60;;;;;;;9.15;100.00;102110.38;2079906;28;35450;-74
2022/10/04 01:24:47;;;;;;;13.20;7.15;;;;;;;9.13;100.00;102112.16;2080258;28;32095;-74
2022/10/04 01:25:52;;;;;;;11.45;7.85;;;;;;;9.13;100.00;102116.59;2080201;28;37662;-74
2022/10/04 01:26:54;;;;;;;11.27;7.18;;;;;;;9.15;100.00;102110.38;2080502;28;37999;-74
2022/10/04 01:27:55;;;;;;;12.95;7.05;;;;;;;9.14;100.00;102108.59;2079438;28;31628;-74
2022/10/04 01:29:13;;;;;;;13.55;8.25;;;;;;;9.16;100.00;102101.44;2079647;28;32607;-74
2022/10/04 01:30:19;;;;;;;10.43;6.70;;;;;;;9.15;100.00;102094.34;2080184;28;33576;-74
2022/10/04 01:31:21;;;;;;;12.75;7.32;;;;;;;9.16;100.00;102100.56;2080086;28;20045;-74
2022/10/04 01:32:24;;;;;;;12.55;7.25;;;;;;;9.16;100.00;102096.09;2080184;28;37249;-74
2022/10/04 01:33:26;;;;;;;10.32;6.55;;;;;;;9.16;100.00;102096.09;2087161;28;31251;-74
2022/10/04 01:34:29;;;;;;;8.20;6.82;;;;;;;9.15;100.00;102102.34;2079391;28;37417;-74
2022/10/04 01:35:32;;;;;;;15.23;7.88;;;;;;;9.15;100.00;102096.09;2079492;28;36067;-74
2022/10/04 01:36:35;;;;;;;15.15;8.18;;;;;;;9.17;100.00;102095.25;2080645;28;20038;-74
2022/10/04 01:37:38;;;;;;;17.70;9.95;;;;;;;9.22;100.00;102094.34;2078948;28;37684;-74
2022/10/04 01:38:42;;;;;;;14.63;9.23;;;;;;;9.24;100.00;102100.56;2081124;28;20152;-74
2022/10/04 01:39:44;;;;;;;17.05;8.52;;;;;;;9.22;100.00;102094.34;2079155;28;32543;-74
2022/10/04 01:40:56;;;;;;;14.10;9.00;;;;;;;9.22;100.00;102089.00;2079349;28;35589;-75
2022/10/04 01:42:10;;;;;;;18.10;8.95;;;;;;;9.22;100.00;102089.88;2079705;28;25197;-74
2022/10/04 01:43:20;;;;;;;16.40;9.50;;;;;;;9.24;100.00;102081.88;2079801;28;29786;-73
2022/10/04 01:44:30;;;;;;;;;;;;;;;9.21;100.00;102088.13;2080050;28;35559;-74
2022/10/04 01:45:47;;;;;;;10.40;7.68;;;;;;;9.21;100.00;102082.78;2080295;28;20023;-74
2022/10/04 01:46:51;;;;;;;14.80;9.18;;;;;;;9.24;100.00;102080.09;2080299;28;36560;-74
2022/10/04 01:48:02;;;;;;;12.85;8.93;;;;;;;9.23;100.00;102085.44;2078699;28;36938;-73
2022/10/04 01:49:16;;;;;;;15.10;9.15;;;;;;;9.21;100.00;102088.13;2081126;28;34326;-74
2022/10/04 01:50:58;;;;;;;15.88;10.07;;;;;;;9.24;100.00;102088.13;2085377;28;31658;-74
2022/10/04 01:52:32;;;;;;;17.75;9.75;;;;;;;9.23;100.00;102086.34;2079652;28;38016;-74
2022/10/04 01:53:46;;;;;;;15.15;8.32;;;;;;;9.21;100.00;102088.13;2079877;28;35491;-74
2022/10/04 01:54:59;;;;;;;12.13;7.30;;;;;;;9.19;100.00;102076.53;2080341;28;31680;-74
2022/10/04 01:56:18;;;;;;;14.40;8.75;;;;;;;9.18;100.00;102077.41;2079047;28;42905;-74
2022/10/04 01:57:30;;;;;;;14.40;9.45;;;;;;;9.15;100.00;102078.31;2083333;28;32548;-73
2022/10/04 01:58:48;;;;;;;12.25;8.68;;;;;;;9.17;100.00;102075.66;2079365;28;35540;-74
2022/10/04 02:00:00;;;;;;;21.92;10.48;;;;;;;9.21;100.00;102071.19;2082547;28;29099;-75
2022/10/04 02:01:13;;;;;;;14.52;9.40;;;;;;;9.17;100.00;102078.31;2079041;28;20042;-74
2022/10/04 02:02:44;;;;;;;9.35;7.70;;;;;;;9.15;100.00;102067.63;2074444;28;20073;-74
2022/10/04 02:04:18;;;;;;;16.65;9.70;;;;;;;9.14;100.00;102070.28;2079170;28;34588;-74
2022/10/04 02:05:37;;;;;;;14.90;8.45;;;;;;;9.13;100.00;102074.75;2080017;28;38803;-74
2022/10/04 02:06:43;;;;;;;14.75;10.27;;;;;;;9.13;100.00;102065.81;2079565;28;38280;-74
2022/10/04 02:07:47;;;;;;;21.70;9.55;;;;;;;9.15;100.00;102067.63;2078721;28;30924;-74
2022/10/04 02:08:56;;;;;;;15.10;9.10;;;;;;;9.14;100.00;102056.94;2071826;28;40538;-74
2022/10/04 02:10:03;;;;;;;14.90;8.80;;;;;;;9.13;100.00;102053.38;2072545;28;37761;-74
2022/10/04 02:11:06;;;;;;;20.05;11.13;;;;;;;9.16;100.00;102066.72;2079574;28;20861;-74
2022/10/04 02:12:17;;;;;;;16.35;10.32;;;;;;;9.17;100.00;102055.16;2079570;28;20186;-74
2022/10/04 02:13:28;;;;;;;17.70;10.80;;;;;;;9.15;100.00;102054.28;2073210;28;20088;-74
2022/10/04 02:14:33;;;;;;;16.33;10.95;;;;;;;9.18;100.00;102054.25;2078359;28;37233;-74
2022/10/04 02:15:38;;;;;;;15.77;10.02;;;;;;;9.18;100.00;102054.25;2079682;28;39080;-74
2022/10/04 02:16:46;;;;;;;24.70;11.70;;;;;;;9.26;100.00;102059.63;2079130;28;35862;-74
2022/10/04 02:17:48;;;;;;;13.63;10.02;;;;;;;9.23;100.00;102051.59;2081064;28;36449;-74
2022/10/04 02:18:51;;;;;;;15.80;10.55;;;;;;;9.23;100.00;102048.03;2079256;28;29488;-74
2022/10/04 02:19:53;;;;;;;18.58;10.32;;;;;;;9.23;100.00;102048.03;2079618;28;35222;-74
2022/10/04 02:20:55;;;;;;;18.27;10.95;;;;;;;9.22;100.00;102046.25;2079046;28;32414;-74
2022/10/04 02:22:02;;;;;;;23.40;10.32;;;;;;;9.20;100.00;102048.91;2079566;28;31754;-74
2022/10/04 02:23:05;;;;;;;16.90;10.05;;;;;;;9.18;100.00;102043.56;2079088;28;38335;-75
2022/10/04 02:24:11;;;;;;;13.45;9.23;;;;;;;9.17;100.00;102046.25;2079314;28;30521;-74
2022/10/04 02:25:15;;;;;;;11.45;9.27;;;;;;;9.14;100.00;102036.44;2079221;28;34866;-75
2022/10/04 02:26:17;;;;;;;15.65;9.80;;;;;;;9.13;100.00;102045.38;2080186;28;20093;-74
2022/10/04 02:27:25;;;;;;;12.02;8.38;;;;;;;9.11;100.00;102048.91;2079786;28;31509;-74
2022/10/04 02:28:30;;;;;;;14.20;9.30;;;;;;;9.10;100.00;102040.00;2079477;28;31638;-74
2022/10/04 02:29:33;;;;;;;15.10;8.50;;;;;;;9.09;100.00;102040.88;2080677;28;37264;-74
2022/10/04 02:30:42;;;;;;;15.95;9.50;;;;;;;9.09;100.00;102043.56;2087210;28;20171;-75
2022/10/04 02:33:09;;;;;;;13.90;8.15;;;;;;;9.06;100.00;102040.91;2079833;28;20033;-74
2022/10/04 02:34:12;;;;;;;13.98;8.82;;;;;;;9.03;100.00;102035.56;2078350;28;39736;-74
2022/10/04 02:35:16;;;;;;;10.55;7.32;;;;;;;9.04;100.00;102037.31;2079216;28;35210;-75
2022/10/04 02:36:23;;;;;;;17.20;8.73;;;;;;;9.00;100.00;102040.88;2079420;28;20093;-74
2022/10/04 02:37:27;;;;;;;16.60;9.40;;;;;;;9.00;100.00;102031.97;2071857;28;30085;-74
2022/10/04 02:38:35;;;;;;;13.18;9.32;;;;;;;8.98;100.00;102031.97;2078245;28;37619;-74
2022/10/04 02:39:47;;;;;;;15.30;8.43;;;;;;;8.93;100.00;102042.63;2072501;28;31038;-74
2022/10/04 02:41:04;;;;;;;8.60;7.00;;;;;;;8.91;100.00;102035.53;2080756;28;20858;-74
2022/10/04 02:42:17;;;;;;;11.75;7.85;;;;;;;8.87;100.00;102041.75;2078853;28;30758;-74
2022/10/04 02:43:57;;;;;;;15.25;8.73;;;;;;;8.82;100.00;102036.41;2079286;28;35301;-74
2022/10/04 02:45:11;;;;;;;15.02;8.65;;;;;;;8.77;100.00;102040.84;2078918;28;39003;-74
2022/10/04 02:46:24;;;;;;;16.13;8.48;;;;;;;8.72;100.00;102030.16;2084320;28;36294;-74
2022/10/04 02:47:42;;;;;;;14.52;7.68;;;;;;;8.70;100.00;102037.25;2079425;28;21285;-74
2022/10/04 02:49:00;;;;;;;14.23;8.32;;;;;;;8.64;100.00;102034.56;2083183;28;32401;-73
2022/10/04 02:50:18;;;;;;;14.27;9.05;;;;;;;8.61;100.00;102031.88;2078971;28;29927;-74
2022/10/04 02:51:48;;;;;;;12.30;8.38;;;;;;;8.60;100.00;102038.13;2080121;28;20897;-74
2022/10/04 02:53:00;;;;;;;17.25;9.25;;;;;;;8.59;100.00;102034.56;2079622;28;34862;-74
2022/10/04 02:54:26;;;;;;;13.85;8.43;;;;;;;8.61;100.00;102037.22;2079602;28;20053;-74
2022/10/04 02:55:32;;;;;;;17.58;11.82;;;;;;;8.63;100.00;102035.44;2079266;28;42699;-74
2022/10/04 02:56:35;;;;;;;16.50;10.10;;;;;;;8.63;100.00;102035.44;2079618;28;20152;-74
2022/10/04 02:57:41;;;;;;;15.90;10.38;;;;;;;8.63;100.00;102032.78;2079131;28;30876;-74
2022/10/04 02:58:45;;;;;;;25.40;13.75;;;;;;;8.63;100.00;102034.56;2078945;28;40431;-74
2022/10/04 03:00:00;;;;;;;21.48;11.02;;;;;;;8.63;100.00;102035.44;2080605;28;35303;-74
2022/10/04 03:01:02;;;;;;;23.38;11.30;;;;;;;8.59;100.00;102039.00;2086663;28;35091;-75
2022/10/04 03:02:28;;;;;;;14.52;11.20;;;;;;;8.56;100.00;102033.66;2081086;28;36259;-74
2022/10/04 03:03:46;;;;;;;15.70;11.60;;;;;;;8.56;100.00;102036.31;2080729;28;39236;-74
2022/10/04 03:04:54;;;;;;;15.70;9.88;;;;;;;8.57;100.00;102043.44;2081040;28;20045;-74
2022/10/04 03:06:05;;;;;;;18.13;10.77;;;;;;;8.58;100.00;102043.47;2080285;28;38318;-75
2022/10/04 03:07:08;;;;;;;19.33;12.80;;;;;;;8.60;100.00;102040.81;2081757;28;31089;-74
2022/10/04 03:08:10;;;;;;;17.33;11.27;;;;;;;8.61;100.00;102039.91;2080841;28;34955;-74
2022/10/04 03:09:14;;;;;;;18.48;12.60;;;;;;;8.64;100.00;102039.91;2080567;28;30455;-74
2022/10/04 03:10:16;;;;;;;15.10;10.88;;;;;;;8.65;100.00;102028.38;2080413;28;37576;-74
2022/10/04 03:11:22;;;;;;;19.42;12.77;;;;;;;8.68;100.00;102038.16;2080355;28;40210;-74
2022/10/04 03:12:24;;;;;;;17.63;10.93;;;;;;;8.68;100.00;102030.13;2080582;28;32088;-74
2022/10/04 03:13:30;;;;;;;22.55;12.43;;;;;;;8.70;100.00;102037.25;2080889;28;37349;-74
2022/10/04 03:14:35;;;;;;;16.98;11.60;;;;;;;8.71;100.00;102032.81;2080471;28;32444;-75
2022/10/04 03:15:37;;;;;;;17.80;11.57;;;;;;;8.71;100.00;102031.03;2072657;28;33346;-73
2022/10/04 03:16:43;;;;;;;19.58;12.57;;;;;;;8.75;100.00;102029.25;2072382;28;35164;-74
2022/10/04 03:17:45;;;;;;;20.50;11.65;;;;;;;8.76;100.00;102025.72;2080324;28;39348;-74
2022/10/04 03:18:50;;;;;;;16.52;9.98;;;;;;;8.76;100.00;102026.59;2080110;28;33653;-74
2022/10/04 03:19:54;;;;;;;16.23;10.57;;;;;;;8.76;100.00;102018.59;2081328;28;20127;-74
2022/10/04 03:20:59;;;;;;;19.30;12.32;;;;;;;8.77;100.00;102009.69;2079939;28;36583;-74
2022/10/04 03:22:07;;;;;;;20.83;12.65;;;;;;;8.79;100.00;102013.25;2079310;28;39143;-74
2022/10/04 03:23:11;;;;;;;20.00;12.50;;;;;;;8.79;100.00;102007.00;2082489;28;20823;-75
2022/10/04 03:24:22;;;;;;;26.95;14.05;;;;;;;8.84;100.00;101999.00;2080309;28;32519;-74
2022/10/04 03:25:59;;;;;;;24.25;15.00;;;;;;;8.88;100.00;101998.13;2080187;28;37123;-74
2022/10/04 03:27:08;;;;;;;25.10;15.23;;;;;;;8.87;100.00;101991.91;2081323;28;20933;-74
2022/10/04 03:28:14;;;;;;;17.88;13.82;;;;;;;8.87;100.00;101986.56;2081093;28;20038;-74
2022/10/04 03:29:22;;;;;;;20.02;13.65;;;;;;;8.86;100.00;101981.22;2080192;28;32042;-75
2022/10/04 03:30:23;;;;;;;24.02;15.52;;;;;;;8.87;100.00;101983.88;2081122;28;32408;-74
2022/10/04 03:31:27;;;;;;;30.20;15.90;;;;;;;8.86;100.00;101979.44;2081066;28;35374;-74
2022/10/04 03:32:30;;;;;;;22.20;14.93;;;;;;;8.89;100.00;101983.91;2080014;28;36365;-74
2022/10/04 03:33:31;;;;;;;29.02;17.67;;;;;;;8.93;100.00;101978.53;2079877;28;33559;-74
2022/10/04 03:34:39;;;;;;;28.55;15.13;;;;;;;8.91;100.00;101980.31;2080569;28;30065;-74
2022/10/04 03:35:40;;;;;;;29.95;15.60;;;;;;;8.90;100.00;101980.31;2080163;28;33249;-74
2022/10/04 03:36:45;;;;;;;24.02;15.38;;;;;;;8.89;100.00;101986.56;2081077;28;34076;-75
2022/10/04 03:37:46;;;;;;;27.92;17.35;;;;;;;8.93;100.00;101980.31;2079763;28;20757;-75
2022/10/04 03:38:55;;;;;;;27.67;16.67;;;;;;;8.98;100.00;101981.22;2081510;28;20757;-74
2022/10/04 03:39:58;;;;;;;32.55;18.08;;;;;;;8.98;100.00;101983.91;2080329;28;29628;-74
2022/10/04 03:41:03;;;;;;;29.88;16.67;;;;;;;9.02;100.00;101979.44;2080470;28;23683;-73
2022/10/04 03:42:18;;;;;;;23.95;17.13;;;;;;;9.02;100.00;101982.13;2080224;28;33084;-74
2022/10/04 03:43:26;;;;;;;23.15;16.25;;;;;;;8.97;100.00;101976.75;2081300;28;20029;-75
2022/10/04 03:44:30;;;;;;;28.23;18.35;;;;;;;9.01;100.00;101978.56;2080229;28;35055;-74
2022/10/04 03:45:34;;;;;;;23.65;16.42;;;;;;;9.01;100.00;101975.88;2080278;28;35445;-75
2022/10/04 03:46:36;;;;;;;18.48;13.30;;;;;;;8.98;100.00;101983.91;2080588;28;36564;-74
2022/10/04 03:47:43;;;;;;;24.58;14.88;;;;;;;8.96;100.00;101991.03;2080803;28;40374;-71
2022/10/04 03:48:51;;;;;;;23.23;16.52;;;;;;;8.92;100.00;101995.47;2080907;28;32211;-74
2022/10/04 03:49:54;;;;;;;22.98;15.38;;;;;;;8.91;100.00;101990.13;2080355;28;32543;-74
2022/10/04 03:50:57;;;;;;;22.92;15.38;;;;;;;8.90;100.00;101996.34;2079894;28;34224;-74
2022/10/04 03:52:00;;;;;;;17.02;12.93;;;;;;;8.87;100.00;101991.91;2080046;28;33119;-74
2022/10/04 03:53:14;;;;;;;24.10;15.48;;;;;;;8.90;100.00;101985.66;2080480;28;34437;-74
2022/10/04 03:54:22;;;;;;;21.58;13.07;;;;;;;8.87;100.00;101991.03;2080429;28;32139;-74
2022/10/04 03:55:34;;;;;;;25.77;14.45;;;;;;;8.86;100.00;101995.44;2080166;28;37208;-74
2022/10/04 03:56:37;;;;;;;19.58;12.85;;;;;;;8.85;100.00;101992.81;2079527;28;40082;-74
2022/10/04 03:57:40;;;;;;;20.08;13.10;;;;;;;8.83;100.00;101997.22;2080206;28;35685;-74
2022/10/04 03:58:43;;;;;;;24.40;14.38;;;;;;;8.82;100.00;101998.13;2080110;28;38105;-74
2022/10/04 03:59:45;;;;;;;20.67;12.13;;;;;;;8.82;100.00;101995.47;2080231;28;32618;-74
2022/10/04 04:01:10;;;;;;;22.35;14.43;;;;;;;8.82;100.00;101998.13;2079750;28;31085;-74
2022/10/04 04:02:33;;;;;;;21.83;12.40;;;;;;;8.78;100.00;101995.44;2080602;28;34447;-74
2022/10/04 04:04:05;;;;;;;20.17;12.82;;;;;;;8.78;100.00;102003.47;2079962;28;36475;-74
2022/10/04 04:05:38;;;;;;;21.30;13.18;;;;;;;8.81;100.00;101996.34;2080698;28;35248;-75
2022/10/04 04:07:00;;;;;;;21.98;13.68;;;;;;;8.81;100.00;101993.66;2080766;28;31867;-74
2022/10/04 04:08:33;;;;;;;21.35;12.13;;;;;;;8.81;100.00;102002.59;2080355;28;37641;-74
2022/10/04 04:10:10;;;;;;;22.00;13.27;;;;;;;8.83;100.00;102000.81;2080098;28;31950;-74
2022/10/04 04:11:25;;;;;;;28.05;15.25;;;;;;;8.82;100.00;101999.00;2078883;28;40060;-74
2022/10/04 04:13:28;;;;;;;24.88;14.70;;;;;;;8.84;100.00;102001.69;2081253;28;20875;-74
2022/10/04 04:14:30;;;;;;;31.27;16.08;;;;;;;8.83;100.00;101998.13;2072236;28;36233;-74
2022/10/04 04:15:33;;;;;;;24.13;15.60;;;;;;;8.83;100.00;101997.22;2080984;28;21336;-74
2022/10/04 04:16:36;;;;;;;22.70;15.65;;;;;;;8.85;100.00;102003.47;2080006;28;39264;-74
2022/10/04 04:17:45;;;;;;;25.67;16.65;;;;;;;8.84;100.00;101997.22;2079785;28;37548;-74
2022/10/04 04:18:49;;;;;;;26.88;16.27;;;;;;;8.85;100.00;101996.34;2079742;28;36873;-74
2022/10/04 04:19:52;;;;;;;25.92;16.60;;;;;;;8.84;100.00;101994.56;2081534;28;37422;-74
2022/10/04 04:20:57;;;;;;;26.10;17.10;;;;;;;8.85;100.00;101993.69;2080269;28;36601;-74
2022/10/04 04:21:59;;;;;;;27.38;16.08;;;;;;;8.87;100.00;102001.69;2080262;28;39291;-74
2022/10/04 04:23:10;;;;;;;26.48;16.40;;;;;;;8.86;100.00;101995.44;2079831;28;33954;-74
2022/10/04 04:24:23;;;;;;;26.63;16.38;;;;;;;8.87;100.00;101993.69;2081107;28;30305;-74
2022/10/04 04:25:28;;;;;;;30.70;17.50;;;;;;;8.86;100.00;101994.56;2079811;28;33269;-75
2022/10/04 04:26:39;;;;;;;26.00;17.25;;;;;;;8.86;100.00;101991.91;2082317;28;20354;-74
2022/10/04 04:27:44;;;;;;;23.88;15.25;;;;;;;8.87;100.00;101996.34;2079507;28;33054;-73
2022/10/04 04:28:56;;;;;;;25.23;16.75;;;;;;;8.86;100.00;101994.56;2079640;28;34748;-75
2022/10/04 04:29:59;;;;;;;31.83;16.15;;;;;;;8.83;100.00;101995.47;2079827;28;28850;-75
2022/10/04 04:31:08;;;;;;;27.17;18.15;;;;;;;8.84;100.00;101993.69;2079708;28;40971;-75
2022/10/04 04:32:27;;;;;;;21.70;14.57;;;;;;;8.82;100.00;101996.34;2079914;28;31421;-74
2022/10/04 04:33:34;;;;;;;21.55;14.77;;;;;;;8.79;100.00;101983.88;2083403;28;37459;-75
2022/10/04 04:34:52;;;;;;;26.35;15.45;;;;;;;8.74;100.00;101988.31;2086287;28;36020;-75
2022/10/04 04:36:02;;;;;;;19.67;14.32;;;;;;;8.72;100.00;101990.13;2080090;28;28182;-75
2022/10/04 04:37:09;;;;;;;29.05;14.68;;;;;;;8.70;100.00;101991.84;2082272;28;39489;-75
2022/10/04 04:38:20;;;;;;;23.58;14.40;;;;;;;8.70;100.00;101994.53;2086634;28;20034;-75
2022/10/04 04:39:33;;;;;;;22.52;13.93;;;;;;;8.65;100.00;101991.00;2081146;28;20049;-75
2022/10/04 04:40:36;;;;;;;18.38;13.48;;;;;;;8.63;100.00;101987.41;2080273;28;27959;-75
2022/10/04 04:41:40;;;;;;;23.02;12.63;;;;;;;8.60;100.00;101988.28;2081303;28;37652;-75
2022/10/04 04:42:44;;;;;;;20.95;13.13;;;;;;;8.56;100.00;101982.94;2087150;28;41057;-75
2022/10/04 04:43:46;;;;;;;17.80;12.93;;;;;;;8.54;100.00;101992.72;2080887;28;28376;-75
2022/10/04 04:45:14;;;;;;;17.52;12.38;;;;;;;8.49;100.00;101982.06;2080200;28;30628;-75
2022/10/04 04:46:16;;;;;;;19.42;12.55;;;;;;;8.45;100.00;101984.69;2079935;28;32257;-75
2022/10/04 04:47:34;;;;;;;23.17;14.55;;;;;;;8.41;100.00;101981.97;2079929;28;36287;-75
2022/10/04 04:48:36;;;;;;;20.83;13.75;;;;;;;8.42;100.00;101982.91;2080076;28;40746;-75
2022/10/04 04:49:39;;;;;;;25.48;14.95;;;;;;;8.39;100.00;101980.19;2080489;28;20038;-75
2022/10/04 04:50:41;;;;;;;23.35;13.70;;;;;;;8.39;100.00;101978.41;2079485;28;34297;-75
2022/10/04 04:51:50;;;;;;;24.90;15.63;;;;;;;8.37;100.00;101974.84;2080531;28;32334;-75
2022/10/04 04:53:01;;;;;;;28.08;16.45;;;;;;;8.39;100.00;101980.19;2080212;28;31059;-75
2022/10/04 04:54:06;;;;;;;27.63;16.30;;;;;;;8.38;100.00;101975.72;2080562;28;37483;-75
2022/10/04 04:55:42;;;;;;;24.02;15.60;;;;;;;8.39;100.00;101977.53;2080293;28;33879;-75
2022/10/04 04:57:04;;;;;;;24.88;15.05;;;;;;;8.35;100.00;101971.28;2079841;28;31287;-74
2022/10/04 04:58:07;;;;;;;20.08;13.65;;;;;;;8.35;100.00;101973.97;2080201;28;31782;-75
2022/10/04 04:59:11;;;;;;;27.40;17.98;;;;;;;8.36;100.00;101978.44;2079562;28;32320;-75
2022/10/04 05:00:22;;;;;;;35.30;17.05;;;;;;;8.40;100.00;101982.00;2079540;28;38942;-75
2022/10/04 05:01:36;;;;;;;29.30;18.70;;;;;;;8.37;100.00;101977.53;2079471;28;36877;-75
2022/10/04 05:02:50;;;;;;;25.05;16.25;;;;;;;8.36;100.00;101975.75;2080034;28;34451;-75
2022/10/04 05:04:07;;;;;;;25.10;15.60;;;;;;;8.33;100.00;101977.53;2080262;28;20819;-75
2022/10/04 05:05:26;;;;;;;23.42;15.27;;;;;;;8.30;100.00;101977.50;2079691;28;40858;-75
2022/10/04 05:06:30;;;;;;;27.77;16.15;;;;;;;8.30;100.00;101974.84;2080384;28;20038;-75
2022/10/04 05:07:33;;;;;;;29.75;16.75;;;;;;;8.31;100.00;101973.94;2079568;28;34715;-75
2022/10/04 05:08:36;;;;;;;30.73;18.25;;;;;;;8.31;100.00;101977.53;2080071;28;36141;-75
2022/10/04 05:09:41;;;;;;;30.60;20.63;;;;;;;8.32;100.00;101965.94;2079874;28;37843;-75
2022/10/04 05:11:11;;;;;;;26.02;17.17;;;;;;;8.32;100.00;101978.41;2080860;28;34421;-75
2022/10/04 05:12:22;;;;;;;29.08;16.60;;;;;;;8.31;100.00;101969.50;2079387;28;37516;-75
2022/10/04 05:13:41;;;;;;;28.60;17.80;;;;;;;8.32;100.00;101971.28;2083961;28;36056;-75
2022/10/04 05:14:51;;;;;;;29.60;17.88;;;;;;;8.31;100.00;101971.28;2086020;28;20046;-75
2022/10/04 05:15:56;;;;;;;25.45;15.95;;;;;;;8.28;100.00;101976.63;2071618;28;33040;-75
2022/10/04 05:16:58;;;;;;;33.58;17.80;;;;;;;8.24;100.00;101978.38;2073245;28;32763;-75
2022/10/04 05:18:14;;;;;;;28.52;16.42;;;;;;;8.24;100.00;101978.38;2080708;28;20041;-74
2022/10/04 05:19:21;;;;;;;33.70;18.35;;;;;;;8.25;100.00;101969.47;2080370;28;34370;-75
2022/10/04 05:20:24;;;;;;;38.08;18.52;;;;;;;8.27;100.00;101972.16;2080555;28;30834;-74
2022/10/04 05:21:30;;;;;;;29.30;17.58;;;;;;;8.29;100.00;101973.03;2079534;28;32334;-75
2022/10/04 05:22:34;;;;;;;28.65;18.83;;;;;;;8.27;100.00;101966.81;2079044;28;31205;-75
2022/10/04 05:23:35;;;;;;;30.83;18.50;;;;;;;8.25;100.00;101968.59;2079659;28;20054;-75
2022/10/04 05:24:44;;;;;;;32.00;21.75;;;;;;;8.26;100.00;101971.28;2080378;28;20874;-75
2022/10/04 05:25:48;;;;;;;30.75;19.48;;;;;;;8.28;100.00;101977.50;2079514;28;32806;-75